sensor_id;sensor_type;location;lat;lon;timestamp;P1;durP1;ratioP1;P2;durP2;ratioP2
77206;SDS011;66190;50.708;7.906;2024-03-22T00:00:28;33.35;;;13.77;;
77206;SDS011;66190;50.708;7.906;2024-03-22T00:02:53;35.17;;;14.30;;
77206;SDS011;66190;50.708;7.906;2024-03-22T00:05:19;34.73;;;14.27;;
77206;SDS011;66190;50.708;7.906;2024-03-22T00:07:46;36.03;;;14.75;;
77206;SDS011;66190;50.708;7.906;2024-03-22T00:10:12;36.10;;;14.90;;
77206;SDS011;66190;50.708;7.906;2024-03-22T00:12:38;37.53;;;14.93;;
77206;SDS011;66190;50.708;7.906;2024-03-22T00:15:03;37.07;;;15.10;;
77206;SDS011;66190;50.708;7.906;2024-03-22T00:17:29;33.35;;;13.82;;
77206;SDS011;66190;50.708;7.906;2024-03-22T00:19:55;34.27;;;15.47;;
77206;SDS011;66190;50.708;7.906;2024-03-22T00:22:21;35.58;;;14.60;;
77206;SDS011;66190;50.708;7.906;2024-03-22T00:24:47;38.60;;;14.30;;
77206;SDS011;66190;50.708;7.906;2024-03-22T00:27:12;35.03;;;14.17;;
77206;SDS011;66190;50.708;7.906;2024-03-22T00:29:37;37.33;;;14.23;;
77206;SDS011;66190;50.708;7.906;2024-03-22T00:32:03;31.90;;;13.50;;
77206;SDS011;66190;50.708;7.906;2024-03-22T00:34:29;34.17;;;14.02;;
77206;SDS011;66190;50.708;7.906;2024-03-22T00:36:55;34.13;;;14.50;;
77206;SDS011;66190;50.708;7.906;2024-03-22T00:39:20;35.97;;;14.27;;
77206;SDS011;66190;50.708;7.906;2024-03-22T00:41:45;33.93;;;13.63;;
77206;SDS011;66190;50.708;7.906;2024-03-22T00:44:11;33.97;;;13.30;;
77206;SDS011;66190;50.708;7.906;2024-03-22T00:46:36;34.33;;;14.13;;
77206;SDS011;66190;50.708;7.906;2024-03-22T00:49:02;34.17;;;14.98;;
77206;SDS011;66190;50.708;7.906;2024-03-22T00:51:27;33.07;;;14.13;;
77206;SDS011;66190;50.708;7.906;2024-03-22T00:53:53;36.40;;;14.40;;
77206;SDS011;66190;50.708;7.906;2024-03-22T00:56:18;31.50;;;12.93;;
77206;SDS011;66190;50.708;7.906;2024-03-22T00:58:44;34.77;;;13.20;;
77206;SDS011;66190;50.708;7.906;2024-03-22T01:01:09;37.80;;;14.37;;
77206;SDS011;66190;50.708;7.906;2024-03-22T01:03:34;37.10;;;14.33;;
77206;SDS011;66190;50.708;7.906;2024-03-22T01:06:00;33.97;;;13.57;;
77206;SDS011;66190;50.708;7.906;2024-03-22T01:08:26;38.33;;;15.02;;
77206;SDS011;66190;50.708;7.906;2024-03-22T01:10:52;39.08;;;14.45;;
77206;SDS011;66190;50.708;7.906;2024-03-22T01:13:18;34.43;;;13.47;;
77206;SDS011;66190;50.708;7.906;2024-03-22T01:15:43;37.00;;;14.73;;
77206;SDS011;66190;50.708;7.906;2024-03-22T01:18:10;34.08;;;14.63;;
77206;SDS011;66190;50.708;7.906;2024-03-22T01:20:36;33.90;;;14.20;;
77206;SDS011;66190;50.708;7.906;2024-03-22T01:23:01;34.33;;;14.30;;
77206;SDS011;66190;50.708;7.906;2024-03-22T01:25:27;32.07;;;13.07;;
77206;SDS011;66190;50.708;7.906;2024-03-22T01:27:53;34.00;;;14.98;;
77206;SDS011;66190;50.708;7.906;2024-03-22T01:30:18;33.78;;;13.75;;
77206;SDS011;66190;50.708;7.906;2024-03-22T01:32:44;33.27;;;14.27;;
77206;SDS011;66190;50.708;7.906;2024-03-22T01:35:09;38.83;;;15.83;;
77206;SDS011;66190;50.708;7.906;2024-03-22T01:37:35;38.23;;;15.23;;
77206;SDS011;66190;50.708;7.906;2024-03-22T01:40:00;36.78;;;13.90;;
77206;SDS011;66190;50.708;7.906;2024-03-22T01:42:26;38.30;;;14.70;;
77206;SDS011;66190;50.708;7.906;2024-03-22T01:44:51;37.00;;;15.27;;
77206;SDS011;66190;50.708;7.906;2024-03-22T01:47:16;36.57;;;14.73;;
77206;SDS011;66190;50.708;7.906;2024-03-22T01:49:42;36.30;;;15.07;;
77206;SDS011;66190;50.708;7.906;2024-03-22T01:52:08;40.13;;;15.87;;
77206;SDS011;66190;50.708;7.906;2024-03-22T01:54:33;38.20;;;14.85;;
77206;SDS011;66190;50.708;7.906;2024-03-22T01:56:59;38.50;;;14.87;;
77206;SDS011;66190;50.708;7.906;2024-03-22T01:59:26;38.40;;;15.55;;
77206;SDS011;66190;50.708;7.906;2024-03-22T02:01:53;40.00;;;16.00;;
77206;SDS011;66190;50.708;7.906;2024-03-22T02:04:18;34.07;;;13.90;;
77206;SDS011;66190;50.708;7.906;2024-03-22T02:06:43;37.97;;;14.40;;
77206;SDS011;66190;50.708;7.906;2024-03-22T02:09:09;31.03;;;12.80;;
77206;SDS011;66190;50.708;7.906;2024-03-22T02:11:35;35.60;;;14.53;;
77206;SDS011;66190;50.708;7.906;2024-03-22T02:14:02;35.28;;;14.88;;
77206;SDS011;66190;50.708;7.906;2024-03-22T02:16:28;36.47;;;13.70;;
77206;SDS011;66190;50.708;7.906;2024-03-22T02:18:54;33.92;;;14.07;;
77206;SDS011;66190;50.708;7.906;2024-03-22T02:21:20;36.07;;;14.47;;
77206;SDS011;66190;50.708;7.906;2024-03-22T02:23:45;38.58;;;14.75;;
77206;SDS011;66190;50.708;7.906;2024-03-22T02:26:10;34.65;;;13.15;;
77206;SDS011;66190;50.708;7.906;2024-03-22T02:28:36;36.83;;;13.57;;
77206;SDS011;66190;50.708;7.906;2024-03-22T02:31:04;36.53;;;14.13;;
77206;SDS011;66190;50.708;7.906;2024-03-22T02:33:30;31.20;;;13.35;;
77206;SDS011;66190;50.708;7.906;2024-03-22T02:35:55;38.57;;;13.93;;
77206;SDS011;66190;50.708;7.906;2024-03-22T02:38:21;33.53;;;14.00;;
77206;SDS011;66190;50.708;7.906;2024-03-22T02:40:48;35.33;;;14.75;;
77206;SDS011;66190;50.708;7.906;2024-03-22T02:43:14;34.17;;;13.60;;
77206;SDS011;66190;50.708;7.906;2024-03-22T02:45:40;33.53;;;14.10;;
77206;SDS011;66190;50.708;7.906;2024-03-22T02:48:06;33.20;;;12.98;;
77206;SDS011;66190;50.708;7.906;2024-03-22T02:50:34;31.07;;;12.23;;
77206;SDS011;66190;50.708;7.906;2024-03-22T02:53:01;34.78;;;13.35;;
77206;SDS011;66190;50.708;7.906;2024-03-22T02:55:27;33.28;;;12.60;;
77206;SDS011;66190;50.708;7.906;2024-03-22T02:57:52;29.57;;;11.70;;
77206;SDS011;66190;50.708;7.906;2024-03-22T03:00:17;32.40;;;12.60;;
77206;SDS011;66190;50.708;7.906;2024-03-22T03:02:43;33.03;;;11.97;;
77206;SDS011;66190;50.708;7.906;2024-03-22T03:05:09;32.30;;;12.32;;
77206;SDS011;66190;50.708;7.906;2024-03-22T03:07:35;31.67;;;12.00;;
77206;SDS011;66190;50.708;7.906;2024-03-22T03:10:00;34.30;;;12.73;;
77206;SDS011;66190;50.708;7.906;2024-03-22T03:12:26;30.17;;;12.27;;
77206;SDS011;66190;50.708;7.906;2024-03-22T03:14:51;30.03;;;11.70;;
77206;SDS011;66190;50.708;7.906;2024-03-22T03:17:16;29.70;;;11.88;;
77206;SDS011;66190;50.708;7.906;2024-03-22T03:19:42;31.83;;;12.93;;
77206;SDS011;66190;50.708;7.906;2024-03-22T03:22:07;29.43;;;11.30;;
77206;SDS011;66190;50.708;7.906;2024-03-22T03:24:33;30.97;;;11.73;;
77206;SDS011;66190;50.708;7.906;2024-03-22T03:26:58;26.50;;;11.63;;
77206;SDS011;66190;50.708;7.906;2024-03-22T03:29:23;27.47;;;11.23;;
77206;SDS011;66190;50.708;7.906;2024-03-22T03:31:49;29.10;;;11.13;;
77206;SDS011;66190;50.708;7.906;2024-03-22T03:34:14;26.92;;;10.80;;
77206;SDS011;66190;50.708;7.906;2024-03-22T03:36:40;25.38;;;10.30;;
77206;SDS011;66190;50.708;7.906;2024-03-22T03:39:06;26.90;;;10.80;;
77206;SDS011;66190;50.708;7.906;2024-03-22T03:41:31;29.00;;;11.27;;
77206;SDS011;66190;50.708;7.906;2024-03-22T03:43:57;27.17;;;10.20;;
77206;SDS011;66190;50.708;7.906;2024-03-22T03:46:22;26.73;;;10.90;;
77206;SDS011;66190;50.708;7.906;2024-03-22T03:48:48;27.10;;;11.25;;
77206;SDS011;66190;50.708;7.906;2024-03-22T03:51:13;28.90;;;10.83;;
77206;SDS011;66190;50.708;7.906;2024-03-22T03:53:38;26.83;;;10.53;;
77206;SDS011;66190;50.708;7.906;2024-03-22T03:56:04;25.87;;;10.30;;
77206;SDS011;66190;50.708;7.906;2024-03-22T03:58:29;21.70;;;9.10;;
77206;SDS011;66190;50.708;7.906;2024-03-22T04:00:55;22.13;;;9.93;;
77206;SDS011;66190;50.708;7.906;2024-03-22T04:03:20;22.17;;;9.13;;
77206;SDS011;66190;50.708;7.906;2024-03-22T04:05:45;25.33;;;10.07;;
77206;SDS011;66190;50.708;7.906;2024-03-22T04:08:11;24.03;;;9.40;;
77206;SDS011;66190;50.708;7.906;2024-03-22T04:10:36;25.37;;;9.77;;
77206;SDS011;66190;50.708;7.906;2024-03-22T04:13:02;24.33;;;9.48;;
77206;SDS011;66190;50.708;7.906;2024-03-22T04:15:28;22.53;;;8.63;;
77206;SDS011;66190;50.708;7.906;2024-03-22T04:17:55;22.43;;;9.03;;
77206;SDS011;66190;50.708;7.906;2024-03-22T04:20:21;23.75;;;8.93;;
77206;SDS011;66190;50.708;7.906;2024-03-22T04:22:47;21.33;;;8.50;;
77206;SDS011;66190;50.708;7.906;2024-03-22T04:25:14;25.20;;;8.55;;
77206;SDS011;66190;50.708;7.906;2024-03-22T04:27:40;23.48;;;9.43;;
77206;SDS011;66190;50.708;7.906;2024-03-22T04:30:05;21.60;;;9.07;;
77206;SDS011;66190;50.708;7.906;2024-03-22T04:32:31;22.10;;;8.32;;
77206;SDS011;66190;50.708;7.906;2024-03-22T04:34:57;22.67;;;8.77;;
77206;SDS011;66190;50.708;7.906;2024-03-22T04:37:22;24.87;;;8.60;;
77206;SDS011;66190;50.708;7.906;2024-03-22T04:39:48;20.73;;;8.38;;
77206;SDS011;66190;50.708;7.906;2024-03-22T04:42:14;27.50;;;8.87;;
77206;SDS011;66190;50.708;7.906;2024-03-22T04:44:40;23.35;;;8.27;;
77206;SDS011;66190;50.708;7.906;2024-03-22T04:47:06;22.00;;;8.30;;
77206;SDS011;66190;50.708;7.906;2024-03-22T04:49:32;20.77;;;8.27;;
77206;SDS011;66190;50.708;7.906;2024-03-22T04:51:57;23.50;;;8.45;;
77206;SDS011;66190;50.708;7.906;2024-03-22T04:54:22;23.10;;;8.63;;
77206;SDS011;66190;50.708;7.906;2024-03-22T04:56:48;20.37;;;8.13;;
77206;SDS011;66190;50.708;7.906;2024-03-22T04:59:13;20.37;;;8.03;;
77206;SDS011;66190;50.708;7.906;2024-03-22T05:01:39;19.43;;;7.73;;
77206;SDS011;66190;50.708;7.906;2024-03-22T05:04:04;20.27;;;7.20;;
77206;SDS011;66190;50.708;7.906;2024-03-22T05:06:29;19.85;;;7.60;;
77206;SDS011;66190;50.708;7.906;2024-03-22T05:08:55;21.00;;;8.70;;
77206;SDS011;66190;50.708;7.906;2024-03-22T05:11:20;17.80;;;8.10;;
77206;SDS011;66190;50.708;7.906;2024-03-22T05:13:46;19.53;;;7.47;;
77206;SDS011;66190;50.708;7.906;2024-03-22T05:16:11;19.88;;;8.00;;
77206;SDS011;66190;50.708;7.906;2024-03-22T05:18:37;19.57;;;7.97;;
77206;SDS011;66190;50.708;7.906;2024-03-22T05:21:03;19.97;;;8.23;;
77206;SDS011;66190;50.708;7.906;2024-03-22T05:23:28;21.98;;;8.40;;
77206;SDS011;66190;50.708;7.906;2024-03-22T05:25:54;19.33;;;8.27;;
77206;SDS011;66190;50.708;7.906;2024-03-22T05:28:19;18.77;;;8.50;;
77206;SDS011;66190;50.708;7.906;2024-03-22T05:30:44;23.03;;;9.07;;
77206;SDS011;66190;50.708;7.906;2024-03-22T05:33:10;21.80;;;8.75;;
77206;SDS011;66190;50.708;7.906;2024-03-22T05:35:36;18.57;;;8.03;;
77206;SDS011;66190;50.708;7.906;2024-03-22T05:38:01;20.13;;;8.40;;
77206;SDS011;66190;50.708;7.906;2024-03-22T05:40:27;22.85;;;8.27;;
77206;SDS011;66190;50.708;7.906;2024-03-22T05:42:52;22.37;;;8.00;;
77206;SDS011;66190;50.708;7.906;2024-03-22T05:45:17;18.40;;;7.67;;
77206;SDS011;66190;50.708;7.906;2024-03-22T05:47:43;21.43;;;8.00;;
77206;SDS011;66190;50.708;7.906;2024-03-22T05:50:08;19.17;;;7.67;;
77206;SDS011;66190;50.708;7.906;2024-03-22T05:52:34;19.52;;;7.55;;
77206;SDS011;66190;50.708;7.906;2024-03-22T05:54:59;21.17;;;8.17;;
77206;SDS011;66190;50.708;7.906;2024-03-22T05:57:25;18.02;;;8.57;;
77206;SDS011;66190;50.708;7.906;2024-03-22T05:59:50;18.93;;;7.73;;
77206;SDS011;66190;50.708;7.906;2024-03-22T06:02:17;19.30;;;8.43;;
77206;SDS011;66190;50.708;7.906;2024-03-22T06:04:42;16.10;;;6.87;;
77206;SDS011;66190;50.708;7.906;2024-03-22T06:07:08;17.50;;;7.40;;
77206;SDS011;66190;50.708;7.906;2024-03-22T06:09:33;19.20;;;7.57;;
77206;SDS011;66190;50.708;7.906;2024-03-22T06:12:11;18.33;;;7.20;;
77206;SDS011;66190;50.708;7.906;2024-03-22T06:14:40;17.92;;;7.85;;
77206;SDS011;66190;50.708;7.906;2024-03-22T06:17:07;19.17;;;7.80;;
77206;SDS011;66190;50.708;7.906;2024-03-22T06:19:33;17.37;;;6.93;;
77206;SDS011;66190;50.708;7.906;2024-03-22T06:21:59;19.63;;;7.82;;
77206;SDS011;66190;50.708;7.906;2024-03-22T06:24:24;20.23;;;8.23;;
77206;SDS011;66190;50.708;7.906;2024-03-22T06:26:50;20.43;;;8.23;;
77206;SDS011;66190;50.708;7.906;2024-03-22T06:29:15;20.50;;;8.70;;
77206;SDS011;66190;50.708;7.906;2024-03-22T06:31:44;19.83;;;8.23;;
77206;SDS011;66190;50.708;7.906;2024-03-22T06:34:09;17.33;;;8.10;;
77206;SDS011;66190;50.708;7.906;2024-03-22T06:36:35;19.80;;;6.70;;
77206;SDS011;66190;50.708;7.906;2024-03-22T06:39:00;18.02;;;7.00;;
77206;SDS011;66190;50.708;7.906;2024-03-22T06:41:28;14.95;;;6.68;;
77206;SDS011;66190;50.708;7.906;2024-03-22T06:43:53;16.63;;;6.53;;
77206;SDS011;66190;50.708;7.906;2024-03-22T06:46:18;15.20;;;5.73;;
77206;SDS011;66190;50.708;7.906;2024-03-22T06:48:44;14.90;;;6.22;;
77206;SDS011;66190;50.708;7.906;2024-03-22T06:51:10;15.65;;;6.05;;
77206;SDS011;66190;50.708;7.906;2024-03-22T06:53:36;13.13;;;5.15;;
77206;SDS011;66190;50.708;7.906;2024-03-22T06:56:01;15.07;;;6.00;;
77206;SDS011;66190;50.708;7.906;2024-03-22T06:58:27;16.55;;;6.10;;
77206;SDS011;66190;50.708;7.906;2024-03-22T07:00:53;16.73;;;5.93;;
77206;SDS011;66190;50.708;7.906;2024-03-22T07:03:19;13.88;;;5.60;;
77206;SDS011;66190;50.708;7.906;2024-03-22T07:05:44;13.90;;;5.27;;
77206;SDS011;66190;50.708;7.906;2024-03-22T07:08:12;13.32;;;5.57;;
77206;SDS011;66190;50.708;7.906;2024-03-22T07:10:40;15.73;;;6.50;;
77206;SDS011;66190;50.708;7.906;2024-03-22T07:13:06;15.95;;;6.35;;
77206;SDS011;66190;50.708;7.906;2024-03-22T07:15:31;16.03;;;6.07;;
77206;SDS011;66190;50.708;7.906;2024-03-22T07:17:57;16.92;;;5.70;;
77206;SDS011;66190;50.708;7.906;2024-03-22T07:20:23;16.40;;;6.10;;
77206;SDS011;66190;50.708;7.906;2024-03-22T07:22:49;12.68;;;5.65;;
77206;SDS011;66190;50.708;7.906;2024-03-22T07:25:14;16.20;;;6.17;;
77206;SDS011;66190;50.708;7.906;2024-03-22T07:27:40;16.47;;;6.53;;
77206;SDS011;66190;50.708;7.906;2024-03-22T07:30:05;14.17;;;6.33;;
77206;SDS011;66190;50.708;7.906;2024-03-22T07:32:31;16.92;;;6.63;;
77206;SDS011;66190;50.708;7.906;2024-03-22T07:34:58;19.20;;;8.07;;
77206;SDS011;66190;50.708;7.906;2024-03-22T07:37:23;14.53;;;6.23;;
77206;SDS011;66190;50.708;7.906;2024-03-22T07:39:48;16.47;;;6.50;;
77206;SDS011;66190;50.708;7.906;2024-03-22T07:42:14;17.03;;;6.57;;
77206;SDS011;66190;50.708;7.906;2024-03-22T07:44:40;16.05;;;6.22;;
77206;SDS011;66190;50.708;7.906;2024-03-22T07:47:05;15.63;;;6.00;;
77206;SDS011;66190;50.708;7.906;2024-03-22T07:49:31;17.23;;;6.30;;
77206;SDS011;66190;50.708;7.906;2024-03-22T07:51:58;14.75;;;5.90;;
77206;SDS011;66190;50.708;7.906;2024-03-22T07:54:24;17.00;;;6.47;;
77206;SDS011;66190;50.708;7.906;2024-03-22T07:56:49;18.05;;;6.20;;
77206;SDS011;66190;50.708;7.906;2024-03-22T07:59:15;13.47;;;5.80;;
77206;SDS011;66190;50.708;7.906;2024-03-22T08:01:40;16.33;;;5.70;;
77206;SDS011;66190;50.708;7.906;2024-03-22T08:04:05;14.20;;;5.47;;
77206;SDS011;66190;50.708;7.906;2024-03-22T08:06:31;14.87;;;5.53;;
77206;SDS011;66190;50.708;7.906;2024-03-22T08:08:56;13.70;;;5.60;;
77206;SDS011;66190;50.708;7.906;2024-03-22T08:11:21;13.03;;;5.47;;
77206;SDS011;66190;50.708;7.906;2024-03-22T08:13:47;14.00;;;6.37;;
77206;SDS011;66190;50.708;7.906;2024-03-22T08:16:13;13.30;;;5.13;;
77206;SDS011;66190;50.708;7.906;2024-03-22T08:18:38;14.25;;;6.10;;
77206;SDS011;66190;50.708;7.906;2024-03-22T08:21:03;14.00;;;5.50;;
77206;SDS011;66190;50.708;7.906;2024-03-22T08:23:29;12.27;;;5.33;;
77206;SDS011;66190;50.708;7.906;2024-03-22T08:25:55;14.35;;;5.20;;
77206;SDS011;66190;50.708;7.906;2024-03-22T08:28:22;11.40;;;4.40;;
77206;SDS011;66190;50.708;7.906;2024-03-22T08:30:47;13.85;;;6.00;;
77206;SDS011;66190;50.708;7.906;2024-03-22T08:33:13;12.40;;;5.37;;
77206;SDS011;66190;50.708;7.906;2024-03-22T08:35:38;13.00;;;6.00;;
77206;SDS011;66190;50.708;7.906;2024-03-22T08:38:04;14.60;;;6.07;;
77206;SDS011;66190;50.708;7.906;2024-03-22T08:40:35;13.13;;;5.93;;
77206;SDS011;66190;50.708;7.906;2024-03-22T08:43:03;17.27;;;6.30;;
77206;SDS011;66190;50.708;7.906;2024-03-22T08:45:30;14.00;;;5.72;;
77206;SDS011;66190;50.708;7.906;2024-03-22T08:47:55;14.03;;;6.13;;
77206;SDS011;66190;50.708;7.906;2024-03-22T08:50:20;13.67;;;5.90;;
77206;SDS011;66190;50.708;7.906;2024-03-22T08:52:46;16.38;;;7.63;;
77206;SDS011;66190;50.708;7.906;2024-03-22T08:55:11;17.50;;;8.00;;
77206;SDS011;66190;50.708;7.906;2024-03-22T08:57:38;16.02;;;7.18;;
77206;SDS011;66190;50.708;7.906;2024-03-22T09:00:03;21.70;;;7.77;;
77206;SDS011;66190;50.708;7.906;2024-03-22T09:02:29;17.73;;;7.32;;
77206;SDS011;66190;50.708;7.906;2024-03-22T09:04:55;17.17;;;7.47;;
77206;SDS011;66190;50.708;7.906;2024-03-22T09:07:20;16.38;;;8.07;;
77206;SDS011;66190;50.708;7.906;2024-03-22T09:09:46;17.55;;;7.45;;
77206;SDS011;66190;50.708;7.906;2024-03-22T09:12:11;17.67;;;6.43;;
77206;SDS011;66190;50.708;7.906;2024-03-22T09:14:37;15.73;;;7.33;;
77206;SDS011;66190;50.708;7.906;2024-03-22T09:17:02;15.53;;;7.77;;
77206;SDS011;66190;50.708;7.906;2024-03-22T09:19:28;19.03;;;7.43;;
77206;SDS011;66190;50.708;7.906;2024-03-22T09:21:53;15.23;;;7.20;;
77206;SDS011;66190;50.708;7.906;2024-03-22T09:24:18;15.88;;;7.28;;
77206;SDS011;66190;50.708;7.906;2024-03-22T09:26:44;15.63;;;7.27;;
77206;SDS011;66190;50.708;7.906;2024-03-22T09:29:09;20.30;;;8.80;;
77206;SDS011;66190;50.708;7.906;2024-03-22T09:31:34;16.73;;;8.33;;
77206;SDS011;66190;50.708;7.906;2024-03-22T09:34:00;16.52;;;7.75;;
77206;SDS011;66190;50.708;7.906;2024-03-22T09:36:26;15.17;;;7.63;;
77206;SDS011;66190;50.708;7.906;2024-03-22T09:38:52;15.15;;;6.85;;
77206;SDS011;66190;50.708;7.906;2024-03-22T09:41:24;15.23;;;7.50;;
77206;SDS011;66190;50.708;7.906;2024-03-22T09:43:51;15.63;;;8.10;;
77206;SDS011;66190;50.708;7.906;2024-03-22T09:46:18;14.97;;;7.60;;
77206;SDS011;66190;50.708;7.906;2024-03-22T09:48:46;15.13;;;6.78;;
77206;SDS011;66190;50.708;7.906;2024-03-22T09:51:13;17.52;;;7.72;;
77206;SDS011;66190;50.708;7.906;2024-03-22T09:53:40;14.73;;;6.35;;
77206;SDS011;66190;50.708;7.906;2024-03-22T09:56:11;13.30;;;6.63;;
77206;SDS011;66190;50.708;7.906;2024-03-22T09:58:39;15.13;;;6.50;;
77206;SDS011;66190;50.708;7.906;2024-03-22T10:01:06;16.42;;;7.53;;
77206;SDS011;66190;50.708;7.906;2024-03-22T10:03:31;14.93;;;6.90;;
77206;SDS011;66190;50.708;7.906;2024-03-22T10:05:56;15.23;;;7.03;;
77206;SDS011;66190;50.708;7.906;2024-03-22T10:08:23;17.95;;;7.25;;
77206;SDS011;66190;50.708;7.906;2024-03-22T10:10:48;16.80;;;7.93;;
77206;SDS011;66190;50.708;7.906;2024-03-22T10:13:13;17.75;;;8.00;;
77206;SDS011;66190;50.708;7.906;2024-03-22T10:15:39;17.17;;;8.45;;
77206;SDS011;66190;50.708;7.906;2024-03-22T10:18:04;16.87;;;8.03;;
77206;SDS011;66190;50.708;7.906;2024-03-22T10:20:30;15.40;;;6.37;;
77206;SDS011;66190;50.708;7.906;2024-03-22T10:22:56;17.90;;;7.03;;
77206;SDS011;66190;50.708;7.906;2024-03-22T10:25:23;15.07;;;6.97;;
77206;SDS011;66190;50.708;7.906;2024-03-22T10:27:49;14.95;;;7.70;;
77206;SDS011;66190;50.708;7.906;2024-03-22T10:30:15;15.40;;;7.30;;
77206;SDS011;66190;50.708;7.906;2024-03-22T10:32:42;15.18;;;7.07;;
77206;SDS011;66190;50.708;7.906;2024-03-22T10:35:07;17.25;;;7.82;;
77206;SDS011;66190;50.708;7.906;2024-03-22T10:37:36;14.82;;;6.90;;
77206;SDS011;66190;50.708;7.906;2024-03-22T10:40:02;16.50;;;7.23;;
77206;SDS011;66190;50.708;7.906;2024-03-22T10:45:07;13.68;;;7.22;;
77206;SDS011;66190;50.708;7.906;2024-03-22T10:47:36;17.08;;;7.55;;
77206;SDS011;66190;50.708;7.906;2024-03-22T10:50:06;17.00;;;8.00;;
77206;SDS011;66190;50.708;7.906;2024-03-22T10:55:22;15.68;;;7.80;;
77206;SDS011;66190;50.708;7.906;2024-03-22T10:57:55;17.48;;;9.43;;
77206;SDS011;66190;50.708;7.906;2024-03-22T11:00:31;15.15;;;7.22;;
77206;SDS011;66190;50.708;7.906;2024-03-22T11:02:58;14.75;;;7.03;;
77206;SDS011;66190;50.708;7.906;2024-03-22T11:05:23;15.03;;;7.37;;
77206;SDS011;66190;50.708;7.906;2024-03-22T11:08:03;15.27;;;6.80;;
77206;SDS011;66190;50.708;7.906;2024-03-22T11:10:30;14.68;;;7.15;;
77206;SDS011;66190;50.708;7.906;2024-03-22T11:13:00;14.90;;;7.78;;
77206;SDS011;66190;50.708;7.906;2024-03-22T11:15:28;16.00;;;7.33;;
77206;SDS011;66190;50.708;7.906;2024-03-22T11:17:53;16.90;;;7.30;;
77206;SDS011;66190;50.708;7.906;2024-03-22T11:20:19;15.23;;;8.20;;
77206;SDS011;66190;50.708;7.906;2024-03-22T11:22:44;15.87;;;7.10;;
77206;SDS011;66190;50.708;7.906;2024-03-22T11:25:12;15.43;;;7.35;;
77206;SDS011;66190;50.708;7.906;2024-03-22T11:27:37;14.27;;;6.97;;
77206;SDS011;66190;50.708;7.906;2024-03-22T11:30:02;15.65;;;8.07;;
77206;SDS011;66190;50.708;7.906;2024-03-22T11:32:29;11.87;;;6.03;;
77206;SDS011;66190;50.708;7.906;2024-03-22T11:34:54;18.42;;;7.35;;
77206;SDS011;66190;50.708;7.906;2024-03-22T11:37:20;14.30;;;7.37;;
77206;SDS011;66190;50.708;7.906;2024-03-22T11:39:45;16.67;;;7.13;;
77206;SDS011;66190;50.708;7.906;2024-03-22T11:42:11;20.52;;;8.90;;
77206;SDS011;66190;50.708;7.906;2024-03-22T11:44:37;20.47;;;10.00;;
77206;SDS011;66190;50.708;7.906;2024-03-22T11:47:04;19.48;;;9.50;;
77206;SDS011;66190;50.708;7.906;2024-03-22T11:49:30;16.60;;;8.27;;
77206;SDS011;66190;50.708;7.906;2024-03-22T11:51:55;19.92;;;10.60;;
77206;SDS011;66190;50.708;7.906;2024-03-22T11:54:22;16.75;;;9.63;;
77206;SDS011;66190;50.708;7.906;2024-03-22T11:56:48;20.27;;;10.60;;
77206;SDS011;66190;50.708;7.906;2024-03-22T11:59:14;16.95;;;9.40;;
77206;SDS011;66190;50.708;7.906;2024-03-22T12:01:42;15.43;;;7.73;;
77206;SDS011;66190;50.708;7.906;2024-03-22T12:04:08;15.93;;;7.80;;
77206;SDS011;66190;50.708;7.906;2024-03-22T12:06:40;16.42;;;8.25;;
77206;SDS011;66190;50.708;7.906;2024-03-22T12:09:07;19.80;;;10.85;;
77206;SDS011;66190;50.708;7.906;2024-03-22T12:11:33;16.55;;;9.88;;
77206;SDS011;66190;50.708;7.906;2024-03-22T12:13:59;15.07;;;8.55;;
77206;SDS011;66190;50.708;7.906;2024-03-22T12:16:24;17.60;;;8.90;;
77206;SDS011;66190;50.708;7.906;2024-03-22T12:18:49;12.73;;;7.07;;
77206;SDS011;66190;50.708;7.906;2024-03-22T12:21:15;17.03;;;9.00;;
77206;SDS011;66190;50.708;7.906;2024-03-22T12:23:40;16.70;;;7.53;;
77206;SDS011;66190;50.708;7.906;2024-03-22T12:26:06;13.63;;;7.13;;
77206;SDS011;66190;50.708;7.906;2024-03-22T12:28:32;14.13;;;7.20;;
77206;SDS011;66190;50.708;7.906;2024-03-22T12:30:57;17.40;;;7.93;;
77206;SDS011;66190;50.708;7.906;2024-03-22T12:33:23;15.93;;;8.40;;
77206;SDS011;66190;50.708;7.906;2024-03-22T12:35:48;14.10;;;8.13;;
77206;SDS011;66190;50.708;7.906;2024-03-22T12:38:13;13.37;;;7.17;;
77206;SDS011;66190;50.708;7.906;2024-03-22T12:40:39;13.68;;;6.65;;
77206;SDS011;66190;50.708;7.906;2024-03-22T12:43:05;15.60;;;7.22;;
77206;SDS011;66190;50.708;7.906;2024-03-22T12:45:31;14.57;;;6.35;;
77206;SDS011;66190;50.708;7.906;2024-03-22T12:47:57;13.70;;;5.87;;
77206;SDS011;66190;50.708;7.906;2024-03-22T12:50:23;12.38;;;6.35;;
77206;SDS011;66190;50.708;7.906;2024-03-22T12:52:49;11.52;;;6.20;;
77206;SDS011;66190;50.708;7.906;2024-03-22T12:55:14;11.97;;;5.90;;
77206;SDS011;66190;50.708;7.906;2024-03-22T12:57:40;14.60;;;6.20;;
77206;SDS011;66190;50.708;7.906;2024-03-22T13:00:06;12.90;;;6.40;;
77206;SDS011;66190;50.708;7.906;2024-03-22T13:02:38;12.68;;;5.88;;
77206;SDS011;66190;50.708;7.906;2024-03-22T13:05:07;14.57;;;6.47;;
77206;SDS011;66190;50.708;7.906;2024-03-22T13:07:33;14.63;;;6.88;;
77206;SDS011;66190;50.708;7.906;2024-03-22T13:09:58;14.80;;;7.60;;
77206;SDS011;66190;50.708;7.906;2024-03-22T13:12:25;15.05;;;8.13;;
77206;SDS011;66190;50.708;7.906;2024-03-22T13:14:51;11.45;;;5.30;;
77206;SDS011;66190;50.708;7.906;2024-03-22T13:17:17;12.37;;;5.67;;
77206;SDS011;66190;50.708;7.906;2024-03-22T13:19:42;14.40;;;6.23;;
77206;SDS011;66190;50.708;7.906;2024-03-22T13:22:08;11.32;;;5.80;;
77206;SDS011;66190;50.708;7.906;2024-03-22T13:24:34;11.82;;;5.13;;
77206;SDS011;66190;50.708;7.906;2024-03-22T13:27:00;11.55;;;4.82;;
77206;SDS011;66190;50.708;7.906;2024-03-22T13:29:26;12.23;;;6.10;;
77206;SDS011;66190;50.708;7.906;2024-03-22T13:31:51;11.97;;;5.37;;
77206;SDS011;66190;50.708;7.906;2024-03-22T13:34:17;11.37;;;5.90;;
77206;SDS011;66190;50.708;7.906;2024-03-22T13:36:42;11.85;;;6.47;;
77206;SDS011;66190;50.708;7.906;2024-03-22T13:39:08;12.73;;;5.80;;
77206;SDS011;66190;50.708;7.906;2024-03-22T13:41:35;14.55;;;6.28;;
77206;SDS011;66190;50.708;7.906;2024-03-22T13:44:01;13.40;;;5.47;;
77206;SDS011;66190;50.708;7.906;2024-03-22T13:46:31;10.02;;;5.43;;
77206;SDS011;66190;50.708;7.906;2024-03-22T13:48:56;12.47;;;5.77;;
77206;SDS011;66190;50.708;7.906;2024-03-22T13:51:22;12.13;;;5.77;;
77206;SDS011;66190;50.708;7.906;2024-03-22T13:53:48;9.63;;;3.75;;
77206;SDS011;66190;50.708;7.906;2024-03-22T13:56:14;15.73;;;6.43;;
77206;SDS011;66190;50.708;7.906;2024-03-22T13:58:39;11.37;;;5.00;;
77206;SDS011;66190;50.708;7.906;2024-03-22T14:01:05;9.70;;;5.00;;
77206;SDS011;66190;50.708;7.906;2024-03-22T14:03:30;13.07;;;6.00;;
77206;SDS011;66190;50.708;7.906;2024-03-22T14:05:55;10.63;;;4.93;;
77206;SDS011;66190;50.708;7.906;2024-03-22T14:08:21;9.93;;;4.33;;
77206;SDS011;66190;50.708;7.906;2024-03-22T14:10:46;9.43;;;4.37;;
77206;SDS011;66190;50.708;7.906;2024-03-22T14:13:12;8.18;;;3.67;;
77206;SDS011;66190;50.708;7.906;2024-03-22T14:15:37;9.93;;;3.90;;
77206;SDS011;66190;50.708;7.906;2024-03-22T14:18:04;10.88;;;4.45;;
77206;SDS011;66190;50.708;7.906;2024-03-22T14:20:30;7.73;;;3.50;;
77206;SDS011;66190;50.708;7.906;2024-03-22T14:22:55;7.72;;;2.60;;
77206;SDS011;66190;50.708;7.906;2024-03-22T14:25:21;7.57;;;2.80;;
77206;SDS011;66190;50.708;7.906;2024-03-22T14:27:46;6.47;;;2.90;;